Time;durP1;ratioP1;P1;durP2;ratioP2;P2;SDS_P1;SDS_P2;PMS_P1;PMS_P2;Temp;Humidity;BMP_temperature;BMP_pressure;BME280_temperature;BME280_humidity;BME280_pressure;Samples;Min_cycle;Max_cycle;Signal;HPM_P1;HPM_P2
2022/05/30 00:00:14;;;;;;;;;;;;;;;23.79;50.01;98854.94;7310564;19;131636;-38
2022/05/30 00:02:40;;;;;;;20.05;3.00;;;;;;;23.75;49.40;98863.31;7311501;19;129825;-42
2022/05/30 00:05:07;;;;;;;33.90;3.63;;;;;;;23.65;49.78;98853.00;7310903;19;128850;-41
2022/05/30 00:07:32;;;;;;;36.17;3.58;;;;;;;23.39;45.29;98862.16;7310399;19;131103;-42
2022/05/30 00:09:57;;;;;;;27.58;2.97;;;;;;;23.35;45.11;98860.84;7308083;19;157463;-41
2022/05/30 00:12:22;;;;;;;31.10;3.17;;;;;;;23.37;45.40;98867.53;7310710;19;155135;-40
2022/05/30 00:14:48;;;;;;;22.38;2.47;;;;;;;23.38;44.83;98871.81;7309671;19;154162;-42
2022/05/30 00:17:13;;;;;;;19.83;2.42;;;;;;;23.39;45.06;98862.97;7309888;19;130687;-41
2022/05/30 00:19:39;;;;;;;47.13;4.50;;;;;;;23.43;44.86;98874.75;7309651;19;129213;-42
2022/05/30 00:22:11;;;;;;;25.95;2.85;;;;;;;23.45;44.54;98871.97;7313199;19;131026;-39
2022/05/30 00:24:37;;;;;;;31.13;3.15;;;;;;;23.45;43.87;98872.78;7311709;19;129599;-41
2022/05/30 00:27:03;;;;;;;29.75;3.00;;;;;;;23.47;43.86;98878.66;7311004;19;130670;-39
2022/05/30 00:29:29;;;;;;;;;;;;;;;23.48;43.75;98877.69;7311731;19;130462;-41
2022/05/30 00:31:55;;;;;;;29.00;3.08;;;;;;;23.49;44.28;98879.31;7312978;19;128816;-41
2022/05/30 00:34:20;;;;;;;45.92;4.03;;;;;;;23.49;44.17;98876.69;7311458;19;129302;-42
2022/05/30 00:36:46;;;;;;;38.67;3.97;;;;;;;23.62;44.68;98878.81;7308897;19;159284;-41
2022/05/30 00:39:11;;;;;;;26.98;2.90;;;;;;;23.61;46.08;98877.97;7307941;19;159300;-42
2022/05/30 00:41:36;;;;;;;35.33;3.63;;;;;;;23.71;47.49;98875.16;7309969;19;154240;-41
2022/05/30 00:44:02;;;;;;;24.40;2.65;;;;;;;23.68;48.64;98873.69;7308259;19;128788;-41
2022/05/30 00:46:27;;;;;;;38.60;4.07;;;;;;;23.69;48.45;98869.25;7313396;19;129606;-39
2022/05/30 00:49:02;;;;;;;25.97;2.67;;;;;;;23.72;49.28;98868.91;7318291;19;130222;-42
2022/05/30 00:51:32;;;;;;;32.80;3.30;;;;;;;23.72;47.58;98874.97;7319627;19;129210;-42
2022/05/30 00:53:59;;;;;;;32.03;3.05;;;;;;;23.73;48.75;98870.53;7318097;19;130050;-42
2022/05/30 00:56:26;;;;;;;;;;;;;;;23.79;50.18;98875.94;7317961;19;130154;-42
2022/05/30 00:58:51;;;;;;;27.40;2.88;;;;;;;23.75;49.51;98871.19;7316980;19;130751;-37
2022/05/30 01:01:19;;;;;;;29.63;2.93;;;;;;;23.72;49.72;98864.47;7316326;19;134833;-40
2022/05/30 01:06:40;;;;;;;21.73;2.35;;;;;;;23.36;44.92;98859.84;7317700;19;129595;-42
2022/05/30 01:09:09;;;;;;;30.80;3.17;;;;;;;23.35;45.02;98864.28;7317456;19;131212;-42
2022/05/30 01:11:53;;;;;;;26.40;3.17;;;;;;;23.27;44.97;98851.19;7316006;19;129641;-40
2022/05/30 01:14:19;;;;;;;29.33;3.20;;;;;;;23.40;44.51;98859.38;7317228;19;128903;-42
2022/05/30 01:16:45;;;;;;;28.25;2.65;;;;;;;23.40;44.33;98859.38;7316956;19;133492;-41
2022/05/30 01:19:25;;;;;;;22.97;2.43;;;;;;;23.43;44.60;98861.66;7317067;19;130629;-40
2022/05/30 01:21:58;;;;;;;30.38;3.00;;;;;;;23.42;44.15;98857.38;7316813;19;130479;-40
2022/05/30 01:24:40;;;;;;;36.50;3.17;;;;;;;23.45;43.85;98862.31;7312318;19;153174;-41
2022/05/30 01:27:43;;;;;;;39.17;3.17;;;;;;;23.45;43.94;98854.44;7313682;19;129325;-39
2022/05/30 01:30:12;;;;;;;25.92;2.47;;;;;;;23.47;44.17;98854.25;7314107;19;129741;-41
2022/05/30 01:32:37;;;;;;;39.70;3.58;;;;;;;23.47;44.08;98857.69;7316679;19;129305;-42
2022/05/30 01:35:04;;;;;;;24.33;2.67;;;;;;;23.60;44.87;98855.31;7316885;19;129967;-42
2022/05/30 01:37:29;;;;;;;39.33;3.75;;;;;;;23.62;46.76;98855.97;7315333;19;130345;-42
2022/05/30 01:39:54;;;;;;;23.40;2.75;;;;;;;23.69;46.09;98854.31;7313766;19;158880;-42
2022/05/30 01:42:19;;;;;;;37.80;3.13;;;;;;;23.70;48.31;98857.78;7315928;19;151879;-40
2022/05/30 01:44:45;;;;;;;14.97;1.80;;;;;;;23.68;48.29;98857.94;7312747;19;151879;-41
2022/05/30 01:47:11;;;;;;;22.40;2.50;;;;;;;23.67;48.87;98856.28;7317883;19;130866;-41
2022/05/30 01:49:36;;;;;;;37.47;3.33;;;;;;;23.71;47.61;98849.72;7315174;19;129868;-40
2022/05/30 01:52:01;;;;;;;28.03;2.90;;;;;;;23.72;49.49;98855.78;7314681;19;154481;-40
2022/05/30 01:54:27;;;;;;;33.97;3.33;;;;;;;23.70;49.64;98855.94;7316468;19;129394;-42
2022/05/30 01:56:52;;;;;;;26.52;2.78;;;;;;;23.72;49.87;98858.41;7315492;19;130278;-40
2022/05/30 01:59:17;;;;;;;28.15;2.90;;;;;;;23.71;49.84;98857.59;7312915;19;158420;-41
2022/05/30 02:01:45;;;;;;;27.30;2.97;;;;;;;23.43;45.82;98853.78;7315024;19;154765;-41
2022/05/30 02:04:11;;;;;;;21.92;2.28;;;;;;;23.34;45.98;98857.41;7315138;19;129760;-40
2022/05/30 02:06:37;;;;;;;33.60;3.05;;;;;;;23.34;44.93;98848.72;7315529;19;129251;-41
2022/05/30 02:09:03;;;;;;;44.00;4.07;;;;;;;23.35;45.00;98856.44;7314922;19;158657;-42
2022/05/30 02:11:29;;;;;;;27.13;2.70;;;;;;;23.38;44.68;98844.75;7317327;19;129112;-38
2022/05/30 02:13:54;;;;;;;31.25;2.75;;;;;;;23.32;44.77;98830.50;7315947;19;129044;-42
2022/05/30 02:19:04;;;;;;;33.03;2.80;;;;;;;23.41;43.98;98847.88;7314907;19;129699;-41
2022/05/30 02:21:31;;;;;;;31.93;3.00;;;;;;;23.41;43.92;98845.25;7315574;19;130545;-42
2022/05/30 02:23:57;;;;;;;29.60;2.55;;;;;;;23.45;44.23;98843.94;7314244;19;129442;-42
2022/05/30 02:26:22;;;;;;;24.05;2.40;;;;;;;23.47;44.36;98846.38;7314640;19;129459;-41
2022/05/30 02:28:48;;;;;;;28.73;2.60;;;;;;;23.45;44.04;98840.47;7314656;19;133871;-41
2022/05/30 02:31:13;;;;;;;25.10;2.57;;;;;;;23.46;44.30;98850.81;7315590;19;128974;-40
2022/05/30 02:36:41;;;;;;;25.75;2.47;;;;;;;23.65;46.23;98842.50;7314648;19;130164;-41
2022/05/30 02:39:12;;;;;;;16.30;1.95;;;;;;;23.66;47.44;98840.72;7314181;19;130696;-42
2022/05/30 02:41:37;;;;;;;30.67;3.10;;;;;;;23.67;47.65;98839.75;7316262;19;129823;-41
2022/05/30 02:44:03;;;;;;;31.90;2.67;;;;;;;23.70;45.95;98839.41;7312840;19;130264;-41
2022/05/30 02:46:29;;;;;;;39.92;3.35;;;;;;;23.69;48.06;98832.50;7314968;19;129116;-40
2022/05/30 02:48:54;;;;;;;25.47;2.73;;;;;;;23.68;48.64;98834.31;7315365;19;130090;-41
2022/05/30 02:51:20;;;;;;;19.58;2.00;;;;;;;23.70;48.12;98834.16;7313313;19;154479;-40
2022/05/30 02:53:45;;;;;;;13.27;1.87;;;;;;;23.70;48.76;98824.44;7312686;19;149497;-42
2022/05/30 02:56:12;;;;;;;17.33;1.58;;;;;;;23.70;49.42;98824.44;7314751;19;129570;-41
2022/05/30 02:58:37;;;;;;;35.88;3.30;;;;;;;23.70;49.18;98831.53;7314623;19;130281;-42
2022/05/30 03:01:03;;;;;;;32.00;2.88;;;;;;;23.46;45.83;98824.56;7314939;19;129164;-41
2022/05/30 03:03:28;;;;;;;45.20;4.00;;;;;;;23.38;46.09;98834.28;7313994;19;129206;-42
2022/05/30 03:05:54;;;;;;;25.93;2.50;;;;;;;23.35;44.94;98835.44;7312120;19;158621;-42
2022/05/30 03:08:20;;;;;;;23.33;2.00;;;;;;;23.37;44.80;98832.66;7313628;19;131017;-40
2022/05/30 03:10:45;;;;;;;12.07;1.47;;;;;;;23.37;44.79;98838.69;7312983;19;129147;-41
2022/05/30 03:13:11;;;;;;;18.43;1.90;;;;;;;23.37;44.92;98833.44;7313807;19;129043;-39
2022/05/30 03:15:36;;;;;;;31.33;2.67;;;;;;;23.40;44.72;98840.16;7312599;19;130165;-38
2022/05/30 03:18:01;;;;;;;49.22;3.70;;;;;;;23.38;44.66;98836.91;7312149;19;129296;-41
2022/05/30 03:20:27;;;;;;;31.03;2.50;;;;;;;23.43;44.59;98845.91;7310290;19;129702;-42
2022/05/30 03:22:52;;;;;;;43.67;3.50;;;;;;;23.43;43.96;98843.28;7312630;19;154141;-41
2022/05/30 03:25:18;;;;;;;28.37;2.60;;;;;;;23.44;44.31;98842.28;7313075;19;148560;-40
2022/05/30 03:27:43;;;;;;;24.52;2.35;;;;;;;23.37;43.99;98825.56;7314075;19;130379;-38
2022/05/30 03:30:10;;;;;;;25.27;2.25;;;;;;;23.45;44.07;98838.69;7310883;19;129271;-41
2022/05/30 03:32:35;;;;;;;39.92;3.05;;;;;;;23.46;44.25;98842.09;7313300;19;130036;-41
2022/05/30 03:35:01;;;;;;;41.63;3.73;;;;;;;23.60;45.97;98842.22;7312197;19;130193;-42
2022/05/30 03:37:27;;;;;;;29.45;2.58;;;;;;;23.64;46.06;98850.56;7311935;19;158510;-42
2022/05/30 03:39:52;;;;;;;25.03;2.20;;;;;;;23.65;46.30;98853.00;7311906;19;129065;-42
2022/05/30 03:42:17;;;;;;;27.07;2.33;;;;;;;23.66;47.89;98844.16;7313453;19;130039;-42
2022/05/30 03:44:43;;;;;;;10.77;1.40;;;;;;;23.68;48.25;98852.69;7308907;19;158272;-42
2022/05/30 03:47:09;;;;;;;43.20;3.77;;;;;;;23.67;48.95;98851.03;7312785;19;130352;-41
2022/05/30 03:49:34;;;;;;;35.43;3.17;;;;;;;23.67;48.97;98845.78;7311955;19;130014;-42
2022/05/30 03:51:59;;;;;;;27.40;2.50;;;;;;;23.68;49.44;98857.13;7312339;19;154372;-40
2022/05/30 03:54:26;;;;;;;32.30;2.83;;;;;;;23.68;49.82;98857.94;7311979;19;159188;-42
2022/05/30 03:56:51;;;;;;;9.90;1.23;;;;;;;23.69;49.03;98858.75;7311912;19;129230;-41
2022/05/30 03:59:16;;;;;;;28.05;2.65;;;;;;;23.67;49.20;98858.13;7311147;19;153725;-41
2022/05/30 04:01:42;;;;;;;17.60;1.60;;;;;;;23.32;45.29;98855.94;7310947;19;154478;-42
2022/05/30 04:04:08;;;;;;;29.17;2.33;;;;;;;23.29;45.28;98867.56;7310409;19;130697;-42
2022/05/30 04:06:33;;;;;;;27.70;2.57;;;;;;;23.32;44.83;98866.44;7312699;19;130431;-42
2022/05/30 04:08:58;;;;;;;25.75;2.08;;;;;;;23.33;44.68;98868.06;7312617;19;129318;-42
2022/05/30 04:11:24;;;;;;;33.03;2.78;;;;;;;23.35;44.47;98868.72;7311826;19;129171;-42
2022/05/30 04:13:49;;;;;;;12.23;1.33;;;;;;;23.35;44.57;98872.16;7311221;19;130599;-41
2022/05/30 04:16:15;;;;;;;36.60;3.10;;;;;;;23.38;44.04;98876.25;7311125;19;132096;-40
2022/05/30 04:18:40;;;;;;;26.67;2.20;;;;;;;23.39;44.72;98872.66;7312142;19;129082;-40
2022/05/30 04:21:07;;;;;;;24.90;2.30;;;;;;;23.40;44.48;98879.53;7309535;19;129954;-41
2022/05/30 04:23:32;;;;;;;46.00;3.88;;;;;;;23.41;44.61;98876.72;7309297;19;130353;-42
2022/05/30 04:25:58;;;;;;;24.88;2.38;;;;;;;23.42;44.01;98880.19;7305803;19;158479;-42
2022/05/30 04:28:23;;;;;;;40.22;3.75;;;;;;;23.44;44.45;98872.94;7311428;19;129650;-40
2022/05/30 04:30:48;;;;;;;10.33;1.13;;;;;;;23.43;44.09;98879.19;7306028;19;129092;-40
2022/05/30 04:33:14;;;;;;;19.47;1.60;;;;;;;23.44;43.67;98876.38;7310605;19;158659;-39
2022/05/30 04:35:42;;;;;;;48.15;4.05;;;;;;;23.46;44.21;98873.59;7310955;19;140682;-38
2022/05/30 04:38:07;;;;;;;23.55;2.08;;;;;;;23.62;45.35;98869.09;7312146;19;129621;-41
2022/05/30 04:40:33;;;;;;;44.78;3.67;;;;;;;23.62;46.71;98882.22;7305102;19;153971;-39
2022/05/30 04:42:58;;;;;;;30.80;3.00;;;;;;;23.66;47.50;98886.16;7307860;19;147524;-41
2022/05/30 04:45:24;;;;;;;33.07;2.80;;;;;;;23.66;48.17;98880.91;7310719;19;147864;-39
2022/05/30 04:47:49;;;;;;;26.20;2.13;;;;;;;23.65;47.98;98883.72;7308414;19;129616;-40
2022/05/30 04:50:16;;;;;;;24.73;2.60;;;;;;;23.66;49.03;98885.34;7306912;19;153632;-41
2022/05/30 04:52:42;;;;;;;28.42;2.67;;;;;;;23.66;48.66;98885.34;7310431;19;129211;-38
2022/05/30 04:55:09;;;;;;;38.67;3.10;;;;;;;23.66;49.34;98880.91;7309672;19;129341;-39
2022/05/30 04:57:47;;;;;;;36.10;2.97;;;;;;;23.67;49.54;98881.75;7309034;19;130436;-39
2022/05/30 05:00:15;;;;;;;40.85;3.60;;;;;;;23.66;49.47;98886.16;7307890;19;131046;-41
2022/05/30 05:02:40;;;;;;;29.77;2.92;;;;;;;23.67;49.53;98887.00;7311535;19;129528;-39
2022/05/30 05:05:06;;;;;;;39.85;3.90;;;;;;;23.34;45.32;98893.31;7306388;19;129929;-41
2022/05/30 05:07:45;;;;;;;29.97;2.93;;;;;;;23.31;45.26;98901.50;7309416;19;129133;-38
2022/05/30 05:10:33;;;;;;;86.20;6.75;;;;;;;23.33;44.92;98897.75;7305736;19;129905;-41
2022/05/30 05:12:59;;;;;;;33.20;3.10;;;;;;;23.33;44.91;98900.38;7310912;19;130121;-41
2022/05/30 05:15:24;;;;;;;41.03;4.23;;;;;;;23.35;44.77;98901.03;7310423;19;129242;-39
2022/05/30 05:17:49;;;;;;;32.87;3.07;;;;;;;23.36;44.42;98899.19;7306627;19;154384;-41
2022/05/30 05:20:14;;;;;;;26.40;2.88;;;;;;;23.37;44.42;98899.03;7305363;19;154762;-40
2022/05/30 05:22:40;;;;;;;47.47;3.78;;;;;;;23.38;43.80;98898.06;7309793;19;139764;-39
2022/05/30 05:25:06;;;;;;;21.38;2.53;;;;;;;23.39;44.14;98898.88;7302472;19;158820;-41
2022/05/30 05:27:31;;;;;;;36.20;3.10;;;;;;;23.40;44.38;98901.34;7308381;19;129878;-40
2022/05/30 05:29:56;;;;;;;43.88;3.83;;;;;;;23.41;43.64;98902.97;7305390;19;154303;-41
2022/05/30 05:32:22;;;;;;;28.45;2.75;;;;;;;23.45;44.90;98906.91;7310193;19;158260;-39
2022/05/30 05:34:50;;;;;;;37.47;3.13;;;;;;;23.58;46.86;98903.72;7312786;19;159350;-39
2022/05/30 05:37:18;;;;;;;41.47;3.60;;;;;;;23.61;46.99;98904.22;7314542;19;129165;-43
2022/05/30 05:39:43;;;;;;;45.80;4.05;;;;;;;23.63;47.73;98911.91;7310404;19;129304;-41
2022/05/30 05:42:09;;;;;;;28.50;3.03;;;;;;;23.64;48.40;98906.50;7312530;19;156115;-42
2022/05/30 05:44:34;;;;;;;26.93;2.70;;;;;;;23.67;47.41;98913.22;7312938;19;155311;-40
2022/05/30 05:47:00;;;;;;;29.13;2.73;;;;;;;23.66;49.49;98912.41;7313440;19;145710;-38
2022/05/30 05:49:26;;;;;;;58.37;4.87;;;;;;;23.65;48.70;98910.75;7313172;19;129146;-40
2022/05/30 05:51:54;;;;;;;54.95;4.68;;;;;;;23.66;48.98;98912.41;7313249;19;130164;-41
2022/05/30 05:54:22;;;;;;;31.48;2.88;;;;;;;23.67;48.58;98914.03;7316515;19;130420;-40
2022/05/30 05:56:48;;;;;;;24.85;2.47;;;;;;;23.67;49.30;98921.91;7315952;19;128977;-39
2022/05/30 05:59:13;;;;;;;23.15;2.20;;;;;;;23.52;46.24;98926.22;7314411;19;153897;-40
2022/05/30 06:01:39;;;;;;;32.30;2.77;;;;;;;23.31;45.30;98922.47;7311479;19;133245;-42
2022/05/30 06:04:06;;;;;;;42.80;3.70;;;;;;;23.30;44.57;98916.44;7313741;19;129938;-41
2022/05/30 06:06:32;;;;;;;48.65;4.10;;;;;;;23.30;44.83;98919.06;7313360;19;129417;-39
2022/05/30 06:09:01;;;;;;;30.87;3.00;;;;;;;23.33;44.50;98929.22;7314228;19;129101;-39
2022/05/30 06:11:26;;;;;;;29.08;2.58;;;;;;;23.33;44.37;98925.75;7312785;19;130089;-40
2022/05/30 06:13:52;;;;;;;54.38;4.28;;;;;;;23.34;44.63;98936.09;7314691;19;130439;-39
2022/05/30 06:16:29;;;;;;;28.03;2.73;;;;;;;23.38;44.43;98928.72;7314003;19;129468;-39
2022/05/30 06:18:58;;;;;;;29.77;2.83;;;;;;;23.27;44.16;98914.13;7312903;19;129042;-40
2022/05/30 06:21:25;;;;;;;35.40;2.92;;;;;;;23.38;44.17;98932.16;7314968;19;130443;-39
2022/05/30 06:23:55;;;;;;;31.95;2.92;;;;;;;23.40;44.08;98932.81;7313148;19;130370;-40
2022/05/30 06:26:21;;;;;;;215.70;18.00;;;;;;;23.50;44.63;98928.22;7279470;19;130139;-44
2022/05/30 06:28:46;;;;;;;89.57;7.13;;;;;;;23.43;44.33;98911.50;7304837;19;130117;-43
2022/05/30 06:31:18;;;;;;;28.98;2.70;;;;;;;23.64;44.56;98926.66;7310133;19;130648;-41
2022/05/30 06:33:43;;;;;;;32.80;2.90;;;;;;;23.71;44.32;98933.72;7303498;19;129850;-41
2022/05/30 06:36:11;;;;;;;21.00;2.65;;;;;;;23.78;44.43;98921.56;7313724;19;154798;-42
2022/05/30 06:38:37;;;;;;;38.25;3.03;;;;;;;23.85;44.56;98926.94;7314932;19;129396;-41
2022/05/30 06:41:19;;;;;;;11.90;1.83;;;;;;;23.89;44.48;98931.69;7314646;19;130128;-40
2022/05/30 06:43:45;;;;;;;32.33;2.83;;;;;;;23.94;44.19;98931.97;7311827;19;130249;-40
2022/05/30 06:46:13;;;;;;;65.13;5.57;;;;;;;23.96;44.07;98927.38;7312177;19;129358;-41
2022/05/30 06:48:39;;;;;;;68.75;5.88;;;;;;;23.99;44.13;98929.69;7300765;19;129572;-40
2022/05/30 06:51:07;;;;;;;145.37;11.77;;;;;;;24.05;43.81;98936.88;7305702;19;130022;-40
2022/05/30 06:53:32;;;;;;;38.28;3.20;;;;;;;24.08;43.93;98931.28;7310018;19;131011;-40
2022/05/30 06:55:57;;;;;;;32.73;3.27;;;;;;;24.13;43.83;98939.47;7314578;19;129239;-41
2022/05/30 06:58:23;;;;;;;44.60;3.50;;;;;;;24.13;43.39;98931.59;7314461;19;129130;-41
2022/05/30 07:00:48;;;;;;;22.50;2.03;;;;;;;24.14;44.14;98935.88;7313152;19;130252;-42
2022/05/30 07:03:15;;;;;;;3.15;0.80;;;;;;;24.18;43.94;98945.03;7312993;19;158450;-41
2022/05/30 07:05:43;;;;;;;38.97;3.45;;;;;;;24.18;43.93;98947.66;7314405;19;128961;-40
2022/05/30 07:08:09;;;;;;;27.95;2.75;;;;;;;24.20;43.36;98948.31;7315650;19;128856;-41
2022/05/30 07:10:35;;;;;;;43.75;3.55;;;;;;;24.21;43.42;98954.38;7312057;19;130729;-42
2022/05/30 07:13:01;;;;;;;40.55;3.78;;;;;;;24.22;43.54;98953.38;7315101;19;130376;-42
2022/05/30 07:15:27;;;;;;;51.72;4.22;;;;;;;24.22;44.07;98951.59;7315630;19;128932;-39
2022/05/30 07:17:53;;;;;;;21.70;2.10;;;;;;;24.41;45.57;98948.50;7314875;19;129050;-39
2022/05/30 07:20:18;;;;;;;18.17;1.77;;;;;;;24.42;45.81;98958.03;7310548;19;158955;-41
2022/05/30 07:22:44;;;;;;;18.90;1.80;;;;;;;24.31;46.00;98936.59;7314738;19;129739;-42
2022/05/30 07:25:09;;;;;;;31.92;2.50;;;;;;;24.36;46.36;98958.72;7307709;19;155120;-40
2022/05/30 07:27:34;;;;;;;42.47;3.67;;;;;;;24.40;45.94;98949.50;7310511;19;129010;-41
2022/05/30 07:30:00;;;;;;;33.58;3.05;;;;;;;24.36;46.56;98963.97;7308424;19;158391;-40
2022/05/30 07:32:25;;;;;;;58.17;4.57;;;;;;;24.33;46.54;98964.31;7310524;19;130133;-40
2022/05/30 07:34:51;;;;;;;13.18;1.58;;;;;;;24.26;46.91;98967.81;7310904;19;155319;-41
2022/05/30 07:37:16;;;;;;;55.22;5.30;;;;;;;24.25;47.30;98945.97;7311360;19;128905;-41
2022/05/30 07:39:41;;;;;;;41.70;5.25;;;;;;;24.32;47.21;98962.69;7307735;19;158401;-42
2022/05/30 07:42:10;;;;;;;48.17;6.10;;;;;;;23.97;46.23;98941.31;7311231;19;158501;-40
2022/05/30 07:44:35;;;;;;;69.93;6.35;;;;;;;24.03;45.02;98978.25;7310846;19;128871;-41
2022/05/30 07:47:01;;;;;;;45.37;5.60;;;;;;;24.16;46.74;98973.25;7313229;19;129393;-42
2022/05/30 07:49:26;;;;;;;47.70;6.63;;;;;;;24.26;46.75;98973.88;7310427;19;130126;-41
2022/05/30 07:51:52;;;;;;;43.33;5.93;;;;;;;24.28;46.75;98979.78;7311868;19;146481;-40
2022/05/30 07:54:18;;;;;;;44.03;6.20;;;;;;;24.28;47.56;98971.91;7310824;19;153544;-40
2022/05/30 07:56:43;;;;;;;36.93;5.27;;;;;;;24.26;47.56;98968.63;7311995;19;129761;-40
2022/05/30 07:59:08;;;;;;;50.65;5.15;;;;;;;24.22;47.55;98972.59;7312426;19;130730;-40
2022/05/30 08:01:34;;;;;;;80.03;8.73;;;;;;;24.29;47.52;98972.72;7311772;19;130441;-39
2022/05/30 08:04:00;;;;;;;45.67;5.20;;;;;;;24.30;47.67;98980.44;7313201;19;129086;-39
2022/05/30 08:06:28;;;;;;;67.03;8.40;;;;;;;24.31;47.28;98976.81;7312645;19;129298;-40
2022/05/30 08:08:54;;;;;;;40.15;4.97;;;;;;;24.30;47.99;98985.69;7311407;19;129189;-39
2022/05/30 08:11:21;;;;;;;41.50;5.75;;;;;;;24.21;47.50;98981.44;7312460;19;130314;-40
2022/05/30 08:13:46;;;;;;;;;;;;;;;24.26;49.52;98973.06;7313957;19;129605;-39
2022/05/30 08:16:14;;;;;;;50.88;5.85;;;;;;;24.17;47.69;98980.16;7313288;19;128925;-40
2022/05/30 08:18:40;;;;;;;41.38;4.85;;;;;;;24.16;47.88;98975.88;7311925;19;129239;-40
2022/05/30 08:21:05;;;;;;;32.90;4.63;;;;;;;24.10;48.32;98978.38;7312256;19;129075;-40
2022/05/30 08:23:31;;;;;;;47.40;5.18;;;;;;;24.16;48.16;98980.34;7312741;19;128832;-39
2022/05/30 08:25:57;;;;;;;45.73;5.53;;;;;;;24.17;47.08;98974.91;7310359;19;129216;-40
2022/05/30 08:28:22;;;;;;;41.33;4.87;;;;;;;24.17;48.26;98976.72;7311853;19;130123;-39
2022/05/30 08:30:48;;;;;;;51.50;5.63;;;;;;;24.10;48.07;98971.31;7307041;19;130917;-39
2022/05/30 08:33:17;;;;;;;30.67;4.40;;;;;;;24.09;48.41;98972.31;7310593;19;129605;-40
2022/05/30 08:35:43;;;;;;;67.30;7.15;;;;;;;24.16;47.56;98983.75;7309403;19;129223;-40
2022/05/30 08:38:08;;;;;;;31.48;4.03;;;;;;;24.17;47.25;98982.78;7310704;19;130757;-39
2022/05/30 08:43:30;;;;;;;47.38;4.80;;;;;;;24.18;48.33;98976.53;7311433;19;129409;-39
2022/05/30 08:46:07;;;;;;;40.25;5.03;;;;;;;24.19;48.89;98974.75;7311183;19;128852;-38
2022/05/30 08:48:46;;;;;;;39.55;4.32;;;;;;;24.23;48.55;98978.66;7310224;19;129759;-40
2022/05/30 08:51:23;;;;;;;27.38;3.85;;;;;;;24.13;47.50;98963.09;7310301;19;130421;-39
2022/05/30 08:53:59;;;;;;;30.25;4.10;;;;;;;24.23;47.65;98976.84;7310441;19;129942;-39
2022/05/30 08:56:29;;;;;;;34.08;3.80;;;;;;;24.19;47.10;98967.69;7310417;19;129116;-39
2022/05/30 08:59:32;;;;;;;46.80;4.75;;;;;;;24.29;48.97;98972.72;7310384;19;130625;-41
2022/05/30 09:02:09;;;;;;;75.85;7.82;;;;;;;24.29;47.62;98962.22;7304231;19;130534;-40
2022/05/30 09:04:41;;;;;;;72.80;6.60;;;;;;;24.30;48.13;98966.47;7303093;19;129155;-41
2022/05/30 09:07:13;;;;;;;40.88;4.50;;;;;;;24.27;47.43;98965.03;7312548;19;130010;-40
2022/05/30 09:09:57;;;;;;;45.83;5.32;;;;;;;24.22;48.88;98962.09;7317821;19;132334;-40
2022/05/30 09:12:28;;;;;;;38.53;4.45;;;;;;;24.22;47.36;98961.25;7316956;19;158725;-40
2022/05/30 09:15:02;;;;;;;30.30;4.13;;;;;;;24.19;47.85;98966.88;7316541;19;154436;-39
2022/05/30 09:17:35;;;;;;;39.47;4.25;;;;;;;24.26;48.18;98960.75;7316974;19;129432;-40
2022/05/30 09:20:05;;;;;;;14.48;2.63;;;;;;;24.23;47.45;98958.47;7316057;19;129616;-39
2022/05/30 09:22:30;;;;;;;33.92;3.70;;;;;;;24.20;47.33;98957.97;7316007;19;131697;-40
2022/05/30 09:27:42;;;;;;;13.88;3.25;;;;;;;24.17;47.91;98953.91;7316940;19;129198;-40
2022/05/30 09:30:09;;;;;;;31.77;4.07;;;;;;;24.12;47.33;98950.13;7314448;19;159067;-39
2022/05/30 09:32:49;;;;;;;40.67;4.15;;;;;;;24.19;49.17;98961.59;7317459;19;131465;-39
2022/05/30 09:35:21;;;;;;;23.58;3.15;;;;;;;24.18;49.23;98952.09;7316565;19;129170;-42
2022/05/30 09:38:05;;;;;;;33.97;4.35;;;;;;;24.06;49.62;98946.41;7316930;19;129025;-39
2022/05/30 09:40:44;;;;;;;41.50;4.22;;;;;;;24.19;49.17;98951.94;7314106;19;129699;-40
2022/05/30 09:43:21;;;;;;;29.27;3.15;;;;;;;24.13;48.53;98957.84;7315823;19;130973;-39
2022/05/30 09:45:47;;;;;;;;;;;;;;;24.19;49.97;98953.72;7314291;19;129261;-39
2022/05/30 09:48:15;;;;;;;31.35;3.60;;;;;;;24.20;48.00;98952.72;7317752;19;129535;-40
2022/05/30 09:50:47;;;;;;;27.67;3.35;;;;;;;24.22;48.12;98951.59;7313350;19;129601;-39
2022/05/30 09:53:42;;;;;;;39.15;4.00;;;;;;;24.23;49.33;98958.47;7315147;19;132564;-40
2022/05/30 09:56:09;;;;;;;34.25;3.65;;;;;;;24.16;47.37;98954.88;7315557;19;129323;-41
2022/05/30 09:58:46;;;;;;;35.25;3.72;;;;;;;24.20;48.48;98957.97;7315967;19;129186;-40
2022/05/30 10:01:12;;;;;;;;;;;;;;;24.23;50.61;98947.94;7315314;19;130310;-38
2022/05/30 10:03:41;;;;;;;33.88;3.67;;;;;;;24.19;47.58;98958.97;7315432;19;130171;-39
2022/05/30 10:06:16;;;;;;;63.42;6.03;;;;;;;24.15;48.34;98958.50;7314381;19;129404;-41
2022/05/30 10:08:43;;;;;;;23.30;2.88;;;;;;;24.19;46.95;98953.72;7316296;19;129222;-40
2022/05/30 10:11:09;;;;;;;27.67;2.97;;;;;;;24.21;47.09;98944.66;7315878;19;130510;-40
2022/05/30 10:13:38;;;;;;;52.90;4.78;;;;;;;24.23;47.50;98944.50;7315736;19;130435;-40
2022/05/30 10:16:07;;;;;;;29.08;3.05;;;;;;;24.22;47.94;98946.31;7315575;19;129285;-40
2022/05/30 10:18:37;;;;;;;53.65;4.97;;;;;;;24.23;47.83;98950.56;7314700;19;130430;-39
2022/05/30 10:21:03;;;;;;;30.70;3.28;;;;;;;24.21;47.33;98954.38;7316267;19;129623;-38
2022/05/30 10:29:49;;;;;;;53.20;5.35;;;;;;;24.14;49.25;98962.13;7309327;19;130100;-39
2022/05/30 10:32:26;;;;;;;28.98;3.05;;;;;;;24.18;48.67;98960.78;7311418;19;157429;-39
2022/05/30 10:35:11;;;;;;;32.30;3.13;;;;;;;24.11;49.89;98959.81;7308378;19;158691;-41
2022/05/30 10:38:06;;;;;;;45.00;4.05;;;;;;;24.21;49.52;98976.19;7310265;19;130676;-40
2022/05/30 10:40:48;;;;;;;48.45;4.55;;;;;;;24.20;48.73;98981.63;7311462;19;129423;-41
2022/05/30 10:43:23;;;;;;;26.33;2.90;;;;;;;24.19;48.18;98972.13;7314340;19;129619;-39
2022/05/30 10:46:07;;;;;;;52.92;4.40;;;;;;;24.16;50.65;98981.13;7310862;19;130757;-39
2022/05/30 10:48:37;;;;;;;42.72;4.15;;;;;;;24.16;48.59;98973.25;7312216;19;129268;-40
2022/05/30 10:51:12;;;;;;;30.75;3.25;;;;;;;24.14;49.79;98972.63;7312988;19;129144;-40
2022/05/30 10:53:43;;;;;;;57.33;5.32;;;;;;;24.17;48.19;98979.34;7314105;19;130191;-40
2022/05/30 10:56:23;;;;;;;42.42;3.85;;;;;;;24.14;49.97;98987.56;7311549;19;130155;-39
2022/05/30 10:58:57;;;;;;;30.77;3.08;;;;;;;24.13;48.81;98989.38;7314293;19;129449;-39
2022/05/30 11:01:41;;;;;;;24.48;2.85;;;;;;;24.11;50.19;98983.47;7311845;19;129089;-39
2022/05/30 11:04:16;;;;;;;34.97;3.28;;;;;;;24.10;49.41;98988.88;7312063;19;130156;-39
2022/05/30 11:06:47;;;;;;;39.42;3.40;;;;;;;24.11;48.94;98991.34;7311499;19;130529;-40
2022/05/30 11:09:21;;;;;;;25.25;2.75;;;;;;;24.10;50.50;98987.09;7311623;19;128903;-39
2022/05/30 11:11:48;;;;;;;21.17;2.33;;;;;;;24.06;48.96;98985.81;7312984;19;129256;-39
2022/05/30 11:14:31;;;;;;;33.03;3.78;;;;;;;24.05;50.75;98985.94;7312928;19;130566;-40
2022/05/30 11:17:27;;;;;;;18.33;2.50;;;;;;;24.01;51.23;98980.25;7310479;19;129629;-40
2022/05/30 11:20:08;;;;;;;31.77;3.22;;;;;;;23.95;52.21;98970.38;7309384;19;129022;-40
2022/05/30 11:22:36;;;;;;;27.77;2.78;;;;;;;23.99;49.70;98984.84;7313811;19;128694;-39
2022/05/30 11:25:04;;;;;;;24.80;3.22;;;;;;;24.00;49.31;98989.09;7310210;19;159962;-39
2022/05/30 11:27:41;;;;;;;38.03;3.55;;;;;;;23.89;51.47;98985.97;7311834;19;131007;-40
2022/05/30 11:30:32;;;;;;;44.30;3.92;;;;;;;23.99;51.98;98986.63;7309572;19;129477;-40
2022/05/30 11:33:16;;;;;;;52.85;4.50;;;;;;;24.00;50.80;98994.34;7312261;19;129105;-40
2022/05/30 11:36:00;;;;;;;73.55;6.40;;;;;;;23.94;51.26;98987.13;7310903;19;130188;-39
2022/05/30 11:38:50;;;;;;;38.22;3.72;;;;;;;23.88;52.08;98987.78;7312221;19;129452;-41
2022/05/30 11:41:38;;;;;;;28.60;2.60;;;;;;;23.85;50.94;98979.44;7310505;19;129427;-40
2022/05/30 11:44:23;;;;;;;38.92;3.67;;;;;;;23.90;51.89;98991.06;7313120;19;128859;-41
2022/05/30 11:47:28;;;;;;;29.83;2.75;;;;;;;23.93;51.59;98989.91;7309690;19;129441;-39